Time;durP1;ratioP1;P1;durP2;ratioP2;P2;SDS_P1;SDS_P2;PMS_P1;PMS_P2;Temp;Humidity;BMP_temperature;BMP_pressure;BME280_temperature;BME280_humidity;BME280_pressure;Samples;Min_cycle;Max_cycle;Signal;HPM_P1;HPM_P2
2022/11/07 00:02:15;;;;;;;12.63;7.60;;;;;;;3.59;100.00;100477.78;4984680;28;20194;-73
2022/11/07 00:04:41;;;;;;;11.23;6.60;;;;;;;3.61;100.00;100477.78;4984543;28;20228;-73
2022/11/07 00:10:01;;;;;;;11.43;6.77;;;;;;;3.63;100.00;100473.50;4982420;28;20209;-73
2022/11/07 00:12:27;;;;;;;10.37;7.00;;;;;;;3.63;100.00;100476.06;4982614;28;20318;-73
2022/11/07 00:14:53;;;;;;;13.77;7.70;;;;;;;3.65;100.00;100476.06;4982178;28;20396;-73
2022/11/07 00:17:20;;;;;;;14.83;7.47;;;;;;;3.66;100.00;100468.34;4970211;28;20202;-73
2022/11/07 00:19:48;;;;;;;10.97;6.73;;;;;;;3.71;100.00;100468.31;4985061;28;20209;-73
2022/11/07 00:22:14;;;;;;;9.80;6.70;;;;;;;3.75;100.00;100476.06;4985075;28;20201;-73
2022/11/07 00:24:41;;;;;;;13.00;6.90;;;;;;;3.79;100.00;100471.75;4979048;28;20620;-73
2022/11/07 00:27:09;;;;;;;10.63;6.83;;;;;;;3.79;100.00;100471.75;4984922;28;20208;-73
2022/11/07 00:29:37;;;;;;;11.60;6.17;;;;;;;3.81;100.00;100469.19;4966705;28;20202;-73
2022/11/07 00:32:03;;;;;;;9.63;6.30;;;;;;;3.83;100.00;100470.88;4985840;28;20205;-73
2022/11/07 00:34:29;;;;;;;10.33;6.30;;;;;;;3.86;100.00;100470.91;4985277;28;20205;-73
2022/11/07 00:36:56;;;;;;;11.80;6.43;;;;;;;3.87;100.00;100464.88;4983520;28;20545;-73
2022/11/07 00:39:22;;;;;;;10.70;6.00;;;;;;;3.90;100.00;100462.28;4981076;28;20495;-73
2022/11/07 00:41:49;;;;;;;12.77;6.97;;;;;;;3.91;100.00;100470.91;4986273;28;20202;-73
2022/11/07 00:44:16;;;;;;;9.50;5.97;;;;;;;3.93;100.00;100467.44;4984999;28;20543;-73
2022/11/07 00:46:43;;;;;;;10.23;6.07;;;;;;;3.97;100.00;100474.34;4973661;28;20248;-73
2022/11/07 00:49:09;;;;;;;9.73;5.63;;;;;;;4.04;100.00;100477.75;4979675;28;20202;-73
2022/11/07 00:51:35;;;;;;;10.87;6.40;;;;;;;4.12;100.00;100478.59;4982679;28;20198;-73
2022/11/07 00:54:02;;;;;;;12.83;6.27;;;;;;;4.14;100.00;100483.75;4977128;28;20201;-73
2022/11/07 00:56:28;;;;;;;9.30;6.10;;;;;;;4.17;100.00;100469.13;4982925;28;20237;-73
2022/11/07 00:58:55;;;;;;;11.90;6.17;;;;;;;4.25;100.00;100479.41;4981731;28;20205;-72
2022/11/07 01:01:25;;;;;;;12.37;6.97;;;;;;;4.31;100.00;100468.22;4978823;28;20226;-73
2022/11/07 01:06:38;;;;;;;13.63;6.33;;;;;;;4.45;100.00;100469.06;4982014;28;20239;-73
2022/11/07 01:09:05;;;;;;;11.17;6.70;;;;;;;4.48;100.00;100473.34;4980017;28;20204;-72
2022/11/07 01:11:31;;;;;;;10.87;6.50;;;;;;;4.53;100.00;100471.59;4980606;28;20717;-73
2022/11/07 01:13:59;;;;;;;11.70;6.13;;;;;;;4.54;100.00;100468.16;4980702;28;20638;-73
2022/11/07 01:16:28;;;;;;;14.07;7.07;;;;;;;4.60;100.00;100462.97;4981793;28;20228;-72
2022/11/07 01:18:55;;;;;;;11.57;6.87;;;;;;;4.63;100.00;100465.53;4980172;28;20214;-73
2022/11/07 01:21:22;;;;;;;10.13;6.10;;;;;;;4.69;100.00;100470.66;4984825;28;20243;-73
2022/11/07 01:23:49;;;;;;;9.30;6.10;;;;;;;4.72;100.00;100473.22;4969286;28;20687;-74
2022/11/07 01:26:16;;;;;;;11.53;6.90;;;;;;;4.81;100.00;100463.72;4959456;28;20228;-74
2022/11/07 01:28:43;;;;;;;13.17;6.97;;;;;;;4.84;100.00;100450.81;4978481;28;20202;-72
2022/11/07 01:31:11;;;;;;;12.37;6.27;;;;;;;4.87;100.00;100450.78;4979490;28;20201;-73
2022/11/07 01:33:40;;;;;;;14.77;6.80;;;;;;;4.91;100.00;100445.59;4974583;28;20688;-73
2022/11/07 01:36:10;;;;;;;11.27;6.23;;;;;;;4.95;100.00;100450.75;4982462;28;21077;-72
2022/11/07 01:38:38;;;;;;;12.87;6.27;;;;;;;4.98;100.00;100453.28;4981710;28;20197;-73
2022/11/07 01:41:24;;;;;;;10.67;5.97;;;;;;;5.01;100.00;100437.78;4984259;28;20236;-72
2022/11/07 01:43:54;;;;;;;12.07;6.47;;;;;;;5.06;100.00;100439.44;4967255;28;20270;-73
2022/11/07 01:46:24;;;;;;;12.03;6.43;;;;;;;5.10;100.00;100450.63;4982170;28;20283;-73
2022/11/07 01:48:57;;;;;;;12.03;6.70;;;;;;;5.15;100.00;100453.19;4978199;28;20222;-73
2022/11/07 01:51:24;;;;;;;12.33;6.77;;;;;;;5.16;100.00;100442.84;4977891;28;20585;-73
2022/11/07 01:53:53;;;;;;;11.30;7.03;;;;;;;5.18;100.00;100440.25;4979549;28;20197;-73
2022/11/07 01:56:24;;;;;;;12.77;7.20;;;;;;;5.19;100.00;100435.09;4982102;28;20469;-73
2022/11/07 01:58:52;;;;;;;15.00;6.63;;;;;;;5.24;100.00;100445.38;4972309;28;20205;-73
2022/11/07 02:01:18;;;;;;;11.00;6.30;;;;;;;5.28;100.00;100439.31;4983093;28;20712;-73
2022/11/07 02:03:46;;;;;;;9.90;6.77;;;;;;;5.32;100.00;100430.66;4984160;28;20208;-72
2022/11/07 02:06:20;;;;;;;10.80;6.83;;;;;;;5.35;100.00;100435.81;4981805;28;20236;-73
2022/11/07 02:08:49;;;;;;;12.13;7.63;;;;;;;5.37;100.00;100434.09;4982328;28;20210;-73
2022/11/07 02:11:17;;;;;;;13.80;7.50;;;;;;;5.41;100.00;100432.31;4983386;28;20201;-72
2022/11/07 02:13:43;;;;;;;9.00;5.97;;;;;;;5.42;100.00;100427.16;4981193;28;20637;-73
2022/11/07 02:16:10;;;;;;;11.40;6.57;;;;;;;5.43;100.00;100425.41;4982370;28;20229;-74
2022/11/07 02:18:39;;;;;;;11.03;6.40;;;;;;;5.43;100.00;100421.09;4984172;28;20524;-73
2022/11/07 02:21:10;;;;;;;13.20;7.27;;;;;;;5.42;100.00;100419.38;4983706;28;20209;-73
2022/11/07 02:23:45;;;;;;;12.00;7.03;;;;;;;5.43;100.00;100422.81;4981319;28;20490;-73
2022/11/07 02:26:13;;;;;;;10.00;6.47;;;;;;;5.41;100.00;100425.41;4982301;28;20224;-72
2022/11/07 02:28:40;;;;;;;11.20;6.90;;;;;;;5.43;100.00;100428.00;4982632;28;20756;-73
2022/11/07 02:31:07;;;;;;;10.50;6.27;;;;;;;5.45;100.00;100434.88;4982920;28;20205;-73
2022/11/07 02:33:33;;;;;;;10.83;7.00;;;;;;;5.47;100.00;100429.69;4983155;28;20212;-73
2022/11/07 02:36:00;;;;;;;10.50;6.23;;;;;;;5.49;100.00;100430.53;4983332;28;20569;-73
2022/11/07 02:38:30;;;;;;;9.23;5.87;;;;;;;5.49;100.00;100425.38;4981691;28;20694;-73
2022/11/07 02:41:00;;;;;;;10.33;6.27;;;;;;;5.50;100.00;100432.25;4983825;28;20229;-73
2022/11/07 02:43:29;;;;;;;11.37;5.93;;;;;;;5.52;100.00;100445.16;4983987;28;20212;-73
2022/11/07 02:45:58;;;;;;;9.83;6.03;;;;;;;5.52;100.00;100437.41;4982065;28;20221;-73
2022/11/07 02:48:28;;;;;;;10.43;5.73;;;;;;;5.50;100.00;100433.13;4983821;28;20211;-73
2022/11/07 02:50:55;;;;;;;10.50;6.13;;;;;;;5.49;100.00;100433.13;4988251;28;20207;-72
2022/11/07 02:53:21;;;;;;;12.57;6.60;;;;;;;5.49;100.00;100433.97;4987324;28;20616;-73
2022/11/07 02:55:47;;;;;;;11.30;6.57;;;;;;;5.49;100.00;100441.75;4985153;28;20232;-73
2022/11/07 02:58:14;;;;;;;12.33;6.47;;;;;;;5.48;100.00;100434.84;4985890;28;20593;-73
2022/11/07 03:00:41;;;;;;;9.63;6.03;;;;;;;5.46;100.00;100436.59;4986775;28;20217;-73
2022/11/07 03:03:08;;;;;;;10.67;6.30;;;;;;;5.44;100.00;100440.06;4986140;28;20194;-73
2022/11/07 03:05:34;;;;;;;11.77;6.97;;;;;;;5.42;100.00;100436.66;4985623;28;20550;-73
2022/11/07 03:08:00;;;;;;;10.43;6.33;;;;;;;5.35;100.00;100430.66;4988339;28;20212;-73
2022/11/07 03:10:27;;;;;;;10.50;6.27;;;;;;;5.26;100.00;100446.25;4987291;28;20198;-73
2022/11/07 03:12:53;;;;;;;10.87;6.27;;;;;;;5.16;100.00;100440.25;4987599;28;20206;-73
2022/11/07 03:15:20;;;;;;;9.53;6.30;;;;;;;5.11;100.00;100434.25;5007364;22;20240;-68
2022/11/07 03:17:47;;;;;;;10.73;6.30;;;;;;;5.05;100.00;100448.09;5021061;28;20223;-72
2022/11/07 03:20:14;;;;;;;8.43;5.87;;;;;;;5.00;100.00;100443.81;5025159;28;20199;-72
2022/11/07 03:22:40;;;;;;;9.43;6.03;;;;;;;4.94;100.00;100434.38;5025471;28;20615;-71
2022/11/07 03:25:08;;;;;;;9.40;5.93;;;;;;;4.84;100.00;100437.91;5025286;28;20196;-72
2022/11/07 03:27:34;;;;;;;9.73;5.40;;;;;;;4.81;100.00;100443.91;5036566;28;20278;-71
2022/11/07 03:30:00;;;;;;;8.93;5.60;;;;;;;4.74;100.00;100443.09;5044870;28;20203;-72
2022/11/07 03:32:27;;;;;;;10.33;5.97;;;;;;;4.66;100.00;100450.03;5037963;28;20195;-72
2022/11/07 03:34:54;;;;;;;9.20;5.70;;;;;;;4.62;100.00;100452.63;5042228;28;20199;-72
2022/11/07 03:37:21;;;;;;;9.77;5.20;;;;;;;4.62;100.00;100450.03;5042238;28;20195;-72
2022/11/07 03:39:47;;;;;;;10.43;6.00;;;;;;;4.60;100.00;100457.78;5044315;28;20195;-72
2022/11/07 03:42:13;;;;;;;9.30;5.60;;;;;;;4.55;100.00;100460.38;5042802;28;20208;-70
2022/11/07 03:44:40;;;;;;;8.47;5.17;;;;;;;4.51;100.00;100457.84;5040796;28;20199;-71
2022/11/07 03:47:06;;;;;;;9.90;5.90;;;;;;;4.43;100.00;100463.00;5039249;28;20713;-72
2022/11/07 03:49:32;;;;;;;9.93;6.20;;;;;;;4.39;100.00;100455.31;5027138;28;20221;-72
2022/11/07 03:52:00;;;;;;;10.80;5.73;;;;;;;4.36;100.00;100464.78;5042327;28;20663;-72
2022/11/07 03:54:26;;;;;;;9.67;5.47;;;;;;;4.35;100.00;100465.63;5042666;28;20390;-72
2022/11/07 03:56:53;;;;;;;9.53;5.67;;;;;;;4.32;100.00;100460.47;5023973;28;20727;-71
2022/11/07 03:59:19;;;;;;;10.00;5.90;;;;;;;4.28;100.00;100474.25;5041869;28;20299;-72
2022/11/07 04:01:46;;;;;;;12.03;6.50;;;;;;;4.23;100.00;100480.31;5039005;28;20215;-71
2022/11/07 04:04:12;;;;;;;11.20;6.30;;;;;;;4.20;100.00;100481.16;5038734;28;20572;-72
2022/11/07 04:06:39;;;;;;;9.53;5.73;;;;;;;4.18;100.00;100485.47;5024238;28;20663;-72
2022/11/07 04:09:07;;;;;;;7.87;5.60;;;;;;;4.18;100.00;100485.47;5040970;28;20634;-72
2022/11/07 04:19:45;;;;;;;11.20;6.40;;;;;;;4.34;100.00;100501.78;5060404;28;20205;-72
2022/11/07 04:22:11;;;;;;;11.77;6.10;;;;;;;4.42;100.00;100502.63;5062926;28;20617;-72
2022/11/07 04:24:39;;;;;;;9.53;6.13;;;;;;;4.48;100.00;100507.75;5062364;28;20203;-71
2022/11/07 04:29:49;;;;;;;10.30;6.03;;;;;;;4.60;100.00;100503.44;5051642;28;20290;-72
2022/11/07 04:32:16;;;;;;;12.13;7.27;;;;;;;4.63;100.00;100499.09;5054566;28;20203;-72
2022/11/07 04:34:42;;;;;;;11.20;6.17;;;;;;;4.65;100.00;100499.97;5052551;28;20202;-71
2022/11/07 04:37:08;;;;;;;11.07;6.53;;;;;;;4.66;100.00;100506.84;5053563;28;20304;-71
2022/11/07 04:39:35;;;;;;;11.87;6.13;;;;;;;4.66;100.00;100509.44;5060274;28;20252;-71
2022/11/07 04:42:02;;;;;;;9.93;5.90;;;;;;;4.70;100.00;100512.88;5054835;28;20956;-72
2022/11/07 04:44:29;;;;;;;12.37;6.77;;;;;;;4.71;100.00;100511.97;5056649;28;20781;-71
2022/11/07 04:46:55;;;;;;;13.80;6.30;;;;;;;4.70;100.00;100516.28;5059313;28;20225;-73
2022/11/07 04:49:21;;;;;;;10.40;5.63;;;;;;;4.73;100.00;100518.88;5050001;28;20205;-72
2022/11/07 04:51:48;;;;;;;11.17;6.20;;;;;;;4.74;100.00;100518.00;5054282;28;20202;-72
2022/11/07 04:54:16;;;;;;;9.63;6.40;;;;;;;4.77;100.00;100522.31;5036433;28;20614;-72
2022/11/07 04:56:43;;;;;;;11.43;6.57;;;;;;;4.82;100.00;100523.16;5047605;28;20215;-72
2022/11/07 04:59:10;;;;;;;8.97;5.73;;;;;;;4.84;100.00;100521.41;5053779;28;20203;-71
2022/11/07 05:01:37;;;;;;;9.03;5.90;;;;;;;4.86;100.00;100526.56;5056144;28;20222;-72
2022/11/07 05:04:03;;;;;;;10.40;5.73;;;;;;;4.86;100.00;100516.25;5054163;28;20229;-72
2022/11/07 05:06:34;;;;;;;10.17;6.43;;;;;;;4.86;100.00;100517.09;5057621;28;20296;-72
2022/11/07 05:09:00;;;;;;;10.37;6.07;;;;;;;4.87;100.00;100529.16;5034866;28;20203;-72
2022/11/07 05:11:28;;;;;;;9.23;5.80;;;;;;;4.89;100.00;100526.53;5058001;28;20282;-72
2022/11/07 05:13:55;;;;;;;9.90;5.67;;;;;;;4.86;100.00;100530.00;5055789;28;20195;-72
2022/11/07 05:16:22;;;;;;;8.57;5.13;;;;;;;4.84;100.00;100529.16;5051423;28;20233;-72
2022/11/07 05:18:50;;;;;;;8.53;5.60;;;;;;;4.84;100.00;100529.16;5050497;28;20212;-71
2022/11/07 05:21:16;;;;;;;8.23;5.37;;;;;;;4.82;100.00;100538.66;5059792;28;20206;-72
2022/11/07 05:23:42;;;;;;;6.07;4.40;;;;;;;4.86;100.00;100534.31;5040678;28;20198;-71
2022/11/07 05:26:09;;;;;;;7.40;5.00;;;;;;;4.86;100.00;100536.91;5056483;28;20234;-71
2022/11/07 05:28:36;;;;;;;7.97;4.97;;;;;;;4.88;100.00;100548.09;5047570;28;20213;-72
2022/11/07 05:31:04;;;;;;;7.13;4.77;;;;;;;4.89;100.00;100552.38;5047929;28;20937;-72
2022/11/07 05:33:32;;;;;;;8.10;5.27;;;;;;;4.89;100.00;100555.84;5055874;28;20551;-72
2022/11/07 05:36:08;;;;;;;6.70;4.37;;;;;;;4.91;100.00;100563.59;5055706;28;20223;-72
2022/11/07 05:38:35;;;;;;;8.40;4.60;;;;;;;4.92;100.00;100566.16;5038826;28;20202;-71
2022/11/07 05:41:03;;;;;;;7.23;4.27;;;;;;;4.96;100.00;100559.25;5054247;28;20202;-71
2022/11/07 05:43:30;;;;;;;6.83;4.57;;;;;;;5.00;100.00;100571.28;5060078;28;20205;-72
2022/11/07 05:45:58;;;;;;;5.87;4.70;;;;;;;5.07;100.00;100573.00;5038642;28;20226;-72
2022/11/07 05:48:25;;;;;;;5.33;3.87;;;;;;;5.17;100.00;100578.09;5060231;28;20470;-71
2022/11/07 05:50:52;;;;;;;4.90;3.77;;;;;;;5.20;100.00;100580.69;5062802;28;20194;-72
2022/11/07 05:53:20;;;;;;;3.90;3.40;;;;;;;5.31;100.00;100578.88;5053802;28;20281;-73
2022/11/07 05:55:46;;;;;;;5.20;3.33;;;;;;;5.43;100.00;100585.72;5029474;28;20222;-72
2022/11/07 05:58:13;;;;;;;5.07;2.90;;;;;;;5.54;100.00;100596.91;5054017;28;20673;-72
2022/11/07 06:00:40;;;;;;;5.43;3.40;;;;;;;5.54;100.00;100599.47;5047492;28;20203;-72
2022/11/07 06:03:07;;;;;;;5.00;3.70;;;;;;;5.55;100.00;100592.56;5047472;28;20214;-72
2022/11/07 06:05:34;;;;;;;5.33;3.83;;;;;;;5.65;100.00;100596.81;5055815;28;20230;-72
2022/11/07 06:08:04;;;;;;;5.17;3.57;;;;;;;5.71;100.00;100595.91;5051382;28;20578;-72
2022/11/07 06:10:31;;;;;;;5.60;3.83;;;;;;;5.76;100.00;100600.19;5050792;28;20209;-72
2022/11/07 06:12:58;;;;;;;5.00;3.17;;;;;;;5.74;100.00;100604.50;5058264;28;20195;-72
2022/11/07 06:15:25;;;;;;;5.80;3.77;;;;;;;5.71;100.00;100603.69;5038137;28;20318;-72
2022/11/07 06:17:52;;;;;;;6.73;3.20;;;;;;;5.69;100.00;100607.13;5057914;28;20199;-71
2022/11/07 06:20:18;;;;;;;4.97;3.67;;;;;;;5.71;100.00;100616.63;5058245;28;20194;-72
2022/11/07 06:22:45;;;;;;;6.53;3.33;;;;;;;5.68;100.00;100615.78;5053532;28;20222;-72
2022/11/07 06:25:12;;;;;;;5.27;3.40;;;;;;;5.64;100.00;100618.38;5028802;28;20219;-72
2022/11/07 06:27:39;;;;;;;4.47;3.43;;;;;;;5.59;100.00;100612.38;5061829;28;20202;-72
2022/11/07 06:30:06;;;;;;;6.07;3.40;;;;;;;5.56;100.00;100625.31;5047146;28;20206;-72
2022/11/07 06:32:33;;;;;;;5.43;3.47;;;;;;;5.52;100.00;100623.63;5035597;28;20200;-72
2022/11/07 06:34:59;;;;;;;3.80;3.00;;;;;;;5.49;100.00;100627.09;5059300;28;20206;-72
2022/11/07 06:37:26;;;;;;;4.20;3.20;;;;;;;5.43;100.00;100627.97;5039564;28;20203;-72
2022/11/07 06:39:53;;;;;;;4.13;2.77;;;;;;;5.42;100.00;100633.16;5059954;28;20198;-71
2022/11/07 06:42:20;;;;;;;3.70;2.67;;;;;;;5.45;100.00;100640.88;5065422;28;20218;-72
2022/11/07 06:44:47;;;;;;;3.43;2.63;;;;;;;5.53;100.00;100636.53;5055900;28;20202;-71
2022/11/07 06:47:13;;;;;;;3.27;2.97;;;;;;;5.54;100.00;100637.38;5061448;28;20230;-71
2022/11/07 06:49:39;;;;;;;6.73;2.63;;;;;;;5.53;100.00;100638.28;5060585;28;20198;-72
2022/11/07 06:52:06;;;;;;;4.07;3.13;;;;;;;5.58;100.00;100654.63;5062972;28;20812;-72
2022/11/07 06:54:32;;;;;;;4.40;3.40;;;;;;;5.60;100.00;100645.13;5055500;28;20199;-71
2022/11/07 06:56:58;;;;;;;4.23;2.80;;;;;;;5.64;100.00;100649.41;5055173;28;20226;-73
2022/11/07 06:59:26;;;;;;;4.53;2.83;;;;;;;5.72;100.00;100655.41;5044560;28;20934;-72
2022/11/07 07:01:52;;;;;;;3.97;3.17;;;;;;;5.73;100.00;100651.94;5055422;28;20237;-72
2022/11/07 07:04:19;;;;;;;4.73;3.10;;;;;;;5.75;100.00;100642.47;5062954;28;20199;-72
2022/11/07 07:06:45;;;;;;;4.33;3.07;;;;;;;5.85;100.00;100649.28;5055744;28;20226;-72
2022/11/07 07:09:12;;;;;;;6.00;3.63;;;;;;;5.99;100.00;100651.81;5055236;28;20592;-71
2022/11/07 07:11:38;;;;;;;4.60;3.20;;;;;;;6.08;100.00;100653.47;5052515;28;20210;-71
2022/11/07 07:14:05;;;;;;;4.00;3.40;;;;;;;6.16;100.00;100658.63;5058791;28;20198;-71
2022/11/07 07:16:32;;;;;;;4.43;3.67;;;;;;;6.25;100.00;100658.53;5040477;28;20234;-72
2022/11/07 07:18:59;;;;;;;4.77;3.60;;;;;;;6.31;100.00;100661.06;5060832;28;20214;-71
2022/11/07 07:21:25;;;;;;;6.03;3.47;;;;;;;6.37;100.00;100665.38;5057693;28;20444;-73
2022/11/07 07:23:52;;;;;;;3.47;3.07;;;;;;;6.43;100.00;100657.53;5061063;28;20196;-71
2022/11/07 07:26:18;;;;;;;5.70;3.47;;;;;;;6.51;100.00;100666.09;5057061;28;20306;-71
2022/11/07 07:28:45;;;;;;;4.47;3.73;;;;;;;6.57;100.00;100663.44;5062957;28;20195;-72
2022/11/07 07:31:21;;;;;;;4.53;3.60;;;;;;;6.63;100.00;100667.69;5038703;28;20208;-72
2022/11/07 07:33:49;;;;;;;3.63;3.00;;;;;;;6.68;100.00;100671.09;5058309;28;20226;-72
2022/11/07 07:36:16;;;;;;;6.03;3.57;;;;;;;6.75;100.00;100677.09;5055396;28;20333;-72
2022/11/07 07:38:43;;;;;;;4.63;3.60;;;;;;;6.80;100.00;100675.31;5057595;28;20650;-72
2022/11/07 07:41:09;;;;;;;5.07;3.60;;;;;;;6.86;100.00;100677.00;5048205;28;20191;-72
2022/11/07 07:43:35;;;;;;;4.73;3.60;;;;;;;6.93;100.00;100679.53;5056648;28;20237;-72
2022/11/07 07:46:04;;;;;;;3.93;3.07;;;;;;;7.01;100.00;100674.25;5057221;28;20617;-72
2022/11/07 07:48:31;;;;;;;3.97;3.27;;;;;;;7.06;100.00;100677.66;5061962;28;20202;-72
2022/11/07 07:50:59;;;;;;;4.63;3.20;;;;;;;7.11;100.00;100675.88;5059647;28;20231;-71
2022/11/07 07:53:25;;;;;;;4.47;3.00;;;;;;;7.15;100.00;100680.13;5057982;28;20455;-72
2022/11/07 07:55:56;;;;;;;4.27;2.83;;;;;;;7.19;100.00;100676.66;5057961;28;20221;-72
2022/11/07 07:58:23;;;;;;;3.20;2.80;;;;;;;7.25;100.00;100674.88;5058902;28;20202;-72
2022/11/07 08:00:51;;;;;;;4.10;2.87;;;;;;;7.27;100.00;100678.28;5046030;28;20195;-72
2022/11/07 08:03:17;;;;;;;4.27;3.67;;;;;;;7.26;100.00;100681.75;5061266;28;20639;-71
2022/11/07 08:05:44;;;;;;;3.70;2.90;;;;;;;7.22;100.00;100680.94;5036596;28;20225;-72
2022/11/07 08:08:11;;;;;;;5.10;3.13;;;;;;;7.20;100.00;100677.50;5053963;28;20649;-72
2022/11/07 08:10:38;;;;;;;4.00;3.07;;;;;;;7.26;100.00;100682.59;5049747;28;20679;-71
2022/11/07 08:13:04;;;;;;;3.10;2.50;;;;;;;7.29;100.00;100674.78;5061341;28;20738;-71
2022/11/07 08:15:31;;;;;;;5.67;3.40;;;;;;;7.31;100.00;100679.97;5052392;28;20696;-72
2022/11/07 08:18:00;;;;;;;5.60;3.73;;;;;;;7.35;100.00;100689.41;5038777;28;20213;-72
2022/11/07 08:20:28;;;;;;;6.73;2.67;;;;;;;7.38;100.00;100682.47;5049545;28;20200;-72
2022/11/07 08:23:00;;;;;;;4.43;3.27;;;;;;;7.42;100.00;100679.84;5051613;28;20224;-72
2022/11/07 08:25:29;;;;;;;3.93;2.60;;;;;;;7.46;100.00;100681.50;5054606;28;20293;-73
2022/11/07 08:27:56;;;;;;;4.90;3.67;;;;;;;7.50;100.00;100678.88;5053859;28;20208;-72
2022/11/07 08:30:22;;;;;;;3.20;2.90;;;;;;;7.61;100.00;100678.72;5055200;28;20205;-72
2022/11/07 08:32:48;;;;;;;3.47;2.67;;;;;;;7.70;100.00;100683.78;5055713;28;20198;-72
2022/11/07 08:35:15;;;;;;;3.13;2.70;;;;;;;7.82;100.00;100689.72;5056337;28;20235;-71
2022/11/07 08:37:41;;;;;;;3.57;2.33;;;;;;;7.86;100.00;100693.97;5051120;28;20206;-71
2022/11/07 08:40:09;;;;;;;4.33;2.63;;;;;;;7.90;100.00;100693.06;5057245;28;20201;-71
2022/11/07 08:42:37;;;;;;;2.90;2.27;;;;;;;7.90;100.00;100686.13;5055985;28;20213;-71
2022/11/07 08:45:04;;;;;;;3.87;2.50;;;;;;;7.96;100.00;100698.16;5039144;28;20200;-71
2022/11/07 08:47:30;;;;;;;2.40;2.07;;;;;;;8.04;100.00;100691.13;5058875;28;20213;-72
2022/11/07 08:49:56;;;;;;;3.17;2.37;;;;;;;8.13;100.00;100693.56;5055204;28;20212;-71
2022/11/07 08:52:23;;;;;;;2.80;2.23;;;;;;;8.23;100.00;100693.44;5057667;28;20199;-72
2022/11/07 08:54:49;;;;;;;2.73;2.20;;;;;;;8.30;100.00;100692.44;5051409;28;20201;-72
2022/11/07 08:57:15;;;;;;;3.47;2.43;;;;;;;8.33;100.00;100693.25;5046546;28;20201;-71
2022/11/07 08:59:43;;;;;;;3.97;2.60;;;;;;;8.40;100.00;100691.44;5058148;28;20205;-72
2022/11/07 09:02:11;;;;;;;3.07;2.47;;;;;;;8.44;100.00;100685.34;5059470;28;20326;-71
2022/11/07 09:04:37;;;;;;;2.60;2.10;;;;;;;8.52;100.00;100696.47;5056349;28;20203;-71
2022/11/07 09:07:04;;;;;;;3.53;2.43;;;;;;;8.57;100.00;100686.00;5053088;28;20232;-72
2022/11/07 09:09:30;;;;;;;3.30;2.17;;;;;;;8.62;100.00;100691.97;5055993;28;20202;-72
2022/11/07 09:11:57;;;;;;;2.20;1.63;;;;;;;8.60;100.00;100690.28;5054762;28;20202;-72
2022/11/07 09:14:24;;;;;;;5.30;3.10;;;;;;;8.61;100.00;100690.25;5039317;28;20682;-72
2022/11/07 09:16:51;;;;;;;3.03;2.20;;;;;;;8.68;100.00;100697.06;5054823;28;20239;-72
2022/11/07 09:19:18;;;;;;;2.57;1.97;;;;;;;8.74;100.00;100692.63;5056496;28;20213;-72
2022/11/07 09:21:44;;;;;;;2.30;2.10;;;;;;;8.77;100.00;100684.78;5041616;28;20699;-72
2022/11/07 09:24:10;;;;;;;4.10;1.83;;;;;;;8.85;100.00;100694.19;5057907;28;20649;-72
2022/11/07 09:26:37;;;;;;;4.10;2.10;;;;;;;8.95;100.00;100689.66;5039834;28;20213;-72
2022/11/07 09:29:03;;;;;;;2.53;1.47;;;;;;;9.07;100.00;100698.97;5060194;28;20191;-72
2022/11/07 09:31:30;;;;;;;2.93;1.80;;;;;;;9.15;100.00;100697.09;5056261;28;20203;-72
2022/11/07 09:33:58;;;;;;;2.63;1.50;;;;;;;9.19;100.00;100703.09;5057428;28;20210;-72
2022/11/07 09:36:24;;;;;;;2.33;1.47;;;;;;;9.27;100.00;100699.47;5037080;28;20222;-72
2022/11/07 09:38:50;;;;;;;1.70;1.40;;;;;;;9.35;100.00;100695.84;5057647;28;20200;-72
2022/11/07 09:41:30;;;;;;;2.63;1.70;;;;;;;9.41;100.00;100698.31;5041078;28;20205;-72
2022/11/07 09:44:15;;;;;;;1.73;1.43;;;;;;;9.47;100.00;100698.22;5054484;28;20229;-72
2022/11/07 09:46:59;;;;;;;1.93;1.50;;;;;;;9.52;100.00;100695.53;5050767;28;20229;-72
2022/11/07 09:49:30;;;;;;;3.03;1.60;;;;;;;9.61;100.00;100690.97;5053825;28;20200;-72
2022/11/07 09:52:04;;;;;;;1.43;1.20;;;;;;;9.65;100.00;100697.81;5036551;28;20249;-72
2022/11/07 09:54:36;;;;;;;1.67;1.47;;;;;;;9.71;100.00;100695.97;5052112;28;21227;-72
2022/11/07 09:57:03;;;;;;;2.00;1.60;;;;;;;9.76;100.00;100692.41;5049558;28;20591;-72
2022/11/07 09:59:35;;;;;;;4.13;1.20;;;;;;;9.83;100.00;100691.38;5054399;28;20207;-72
2022/11/07 10:02:03;;;;;;;2.83;1.20;;;;;;;9.90;100.00;100702.47;5060470;28;20581;-72
2022/11/07 10:04:31;;;;;;;1.43;1.20;;;;;;;9.93;100.00;100698.97;5062241;28;20211;-72
2022/11/07 10:07:04;;;;;;;2.47;1.33;;;;;;;10.00;100.00;100697.94;5052676;28;20230;-72
2022/11/07 10:09:39;;;;;;;2.63;1.90;;;;;;;10.04;100.00;100697.84;5060766;28;20195;-72
2022/11/07 10:12:18;;;;;;;3.33;1.60;;;;;;;10.13;100.00;100690.69;5041179;28;20218;-72
2022/11/07 10:14:53;;;;;;;3.87;1.60;;;;;;;10.19;100.00;100685.34;5042172;28;20286;-72
2022/11/07 10:17:25;;;;;;;1.50;1.40;;;;;;;10.20;100.00;100679.22;5049878;28;20210;-72
2022/11/07 10:20:11;;;;;;;2.30;1.50;;;;;;;10.28;100.00;100679.06;5046039;28;20203;-72
2022/11/07 10:22:51;;;;;;;1.43;1.30;;;;;;;10.31;100.00;100685.09;5043030;28;20642;-72
2022/11/07 10:25:21;;;;;;;1.00;0.97;;;;;;;10.35;100.00;100689.31;5061097;28;20218;-72
2022/11/07 10:27:54;;;;;;;1.70;1.30;;;;;;;10.35;100.00;100683.28;5054837;28;20208;-72
2022/11/07 10:30:21;;;;;;;1.67;1.20;;;;;;;10.40;100.00;100682.25;5061973;28;20203;-72
2022/11/07 10:32:57;;;;;;;1.47;1.30;;;;;;;10.51;100.00;100682.00;5057138;28;20582;-72
2022/11/07 10:35:30;;;;;;;1.90;1.10;;;;;;;10.62;100.00;100679.09;5050933;28;20288;-72
2022/11/07 10:37:58;;;;;;;1.67;1.50;;;;;;;10.64;100.00;100685.16;5039704;28;20509;-72
2022/11/07 10:40:32;;;;;;;2.67;1.47;;;;;;;10.66;100.00;100682.50;5059583;28;20200;-72
2022/11/07 10:43:00;;;;;;;1.37;1.27;;;;;;;10.70;100.00;100691.97;5039344;28;20303;-72
2022/11/07 10:45:28;;;;;;;1.20;1.10;;;;;;;10.78;100.00;100688.28;5059460;28;20586;-72
2022/11/07 10:47:56;;;;;;;1.53;1.23;;;;;;;10.82;100.00;100686.44;5039349;28;20241;-72
2022/11/07 10:50:23;;;;;;;1.33;1.07;;;;;;;10.89;100.00;100693.19;5060676;28;20292;-72
2022/11/07 10:52:56;;;;;;;1.80;1.23;;;;;;;11.00;100.00;100700.75;5057825;28;20209;-72
2022/11/07 10:55:23;;;;;;;2.87;1.33;;;;;;;11.05;100.00;100709.31;5057383;28;20708;-71
2022/11/07 10:57:53;;;;;;;2.87;1.23;;;;;;;11.12;100.00;100702.16;5057237;28;20207;-72
2022/11/07 11:00:23;;;;;;;1.20;1.10;;;;;;;11.22;100.00;100690.59;5060788;28;20255;-72
2022/11/07 11:02:51;;;;;;;1.57;1.07;;;;;;;11.31;100.00;100697.28;5059174;28;20488;-72
2022/11/07 11:05:27;;;;;;;1.23;1.13;;;;;;;11.33;100.00;100698.97;5060523;28;20228;-72
2022/11/07 11:07:57;;;;;;;2.50;1.47;;;;;;;11.38;100.00;100709.28;5054486;28;20280;-71
2022/11/07 11:10:27;;;;;;;1.33;1.20;;;;;;;11.35;100.00;100705.00;5058130;28;20209;-72
2022/11/07 11:12:54;;;;;;;1.13;1.03;;;;;;;11.40;100.00;100702.25;5054958;28;20197;-72
2022/11/07 11:15:22;;;;;;;1.63;1.07;;;;;;;11.48;100.00;100699.41;5054466;28;20247;-72
2022/11/07 11:17:59;;;;;;;4.47;1.77;;;;;;;11.58;100.00;100700.03;5057721;28;20556;-72
2022/11/07 11:20:31;;;;;;;1.83;1.30;;;;;;;11.62;100.00;100701.63;5062251;28;20201;-72
2022/11/07 11:23:00;;;;;;;1.50;1.20;;;;;;;11.61;100.00;100705.13;5053636;28;20678;-71
2022/11/07 11:25:26;;;;;;;2.60;1.23;;;;;;;11.54;100.00;100709.69;5038948;28;20747;-72
2022/11/07 11:27:57;;;;;;;1.47;1.10;;;;;;;11.43;100.00;100701.31;5057782;28;20203;-72
2022/11/07 11:30:24;;;;;;;1.20;1.10;;;;;;;11.42;100.00;100703.06;5060456;28;20408;-72
2022/11/07 11:32:57;;;;;;;1.47;1.20;;;;;;;11.42;100.00;100704.84;5059265;28;20486;-72
2022/11/07 11:35:35;;;;;;;1.10;1.00;;;;;;;11.42;100.00;100697.00;5058518;28;20252;-72
2022/11/07 11:38:13;;;;;;;1.33;1.00;;;;;;;11.46;100.00;100694.25;5059642;28;20213;-72
2022/11/07 11:40:43;;;;;;;1.67;1.10;;;;;;;11.48;100.00;100687.22;5053358;28;20418;-72
2022/11/07 11:43:19;;;;;;;6.53;1.40;;;;;;;11.45;100.00;100684.72;5060845;28;20207;-72